N452DA KIAG-KMDW
Flight info
| Callsign | N452DA |
|---|---|
| Flight time | 1h 14m |
| Altitude | 40000 |
| Route | DERLO Q951 SVM LLTCH PANGG7 |
| Aircraft | LJ35/M-SGHRWXY/SB1 |
Departure
| Time | 2026-04-23 02:57 |
|---|---|
| Airport | Niagara Falls International Airport (KIAG) |
Arrival
| Time | 2026-04-23 04:11 |
|---|---|
| Airport | Chicago Midway International Airport (KMDW) |
| Time | Latitude | Longitude | Altitude | Speed | Heading |
|---|---|---|---|---|---|
| 2026-04-23 02:26 | 43.10060 | -78.94437 | 591 ft | 0 kts | 270° |
| 2026-04-23 02:53 | 43.10065 | -78.94470 | 592 ft | 5 kts | 311° |
| 2026-04-23 02:53 | 43.10101 | -78.94460 | 593 ft | 5 kts | 30° |
| 2026-04-23 02:53 | 43.10127 | -78.94462 | 593 ft | 0 kts | 336° |
| 2026-04-23 02:55 | 43.10128 | -78.94463 | 593 ft | 1 kts | 336° |
| 2026-04-23 02:56 | 43.10149 | -78.94477 | 593 ft | 6 kts | 326° |
| 2026-04-23 02:56 | 43.10205 | -78.94512 | 592 ft | 13 kts | 22° |
| 2026-04-23 02:56 | 43.10265 | -78.94424 | 595 ft | 15 kts | 50° |
| 2026-04-23 02:56 | 43.10442 | -78.94136 | 596 ft | 80 kts | 50° |
| 2026-04-23 02:57 | 43.11037 | -78.93168 | 724 ft | 174 kts | 50° |
| 2026-04-23 02:57 | 43.11890 | -78.91778 | 1745 ft | 208 kts | 48° |
| 2026-04-23 02:57 | 43.12880 | -78.90234 | 3087 ft | 230 kts | 43° |
| 2026-04-23 02:57 | 43.14273 | -78.88943 | 4244 ft | 252 kts | 20° |
| 2026-04-23 02:58 | 43.16015 | -78.88619 | 5659 ft | 256 kts | 348° |
| 2026-04-23 02:58 | 43.17593 | -78.89771 | 7033 ft | 266 kts | 312° |
| 2026-04-23 02:58 | 43.18344 | -78.92128 | 8173 ft | 286 kts | 275° |
| 2026-04-23 02:58 | 43.17837 | -78.94784 | 9446 ft | 300 kts | 244° |
| 2026-04-23 02:59 | 43.16444 | -78.96846 | 11251 ft | 294 kts | 225° |
| 2026-04-23 02:59 | 43.14777 | -78.98467 | 12738 ft | 300 kts | 214° |
| 2026-04-23 02:59 | 43.12707 | -78.99289 | 13867 ft | 319 kts | 195° |
| 2026-04-23 02:59 | 43.10659 | -79.00374 | 14923 ft | 315 kts | 217° |
| 2026-04-23 03:00 | 43.09108 | -79.02377 | 16026 ft | 303 kts | 244° |
| 2026-04-23 03:00 | 43.08431 | -79.05017 | 17159 ft | 290 kts | 272° |
| 2026-04-23 03:00 | 43.08680 | -79.07697 | 18289 ft | 285 kts | 290° |
| 2026-04-23 03:00 | 43.09262 | -79.10291 | 19318 ft | 287 kts | 291° |
| 2026-04-23 03:01 | 43.09777 | -79.12957 | 20397 ft | 292 kts | 287° |
| 2026-04-23 03:01 | 43.10092 | -79.15726 | 21460 ft | 300 kts | 280° |
| 2026-04-23 03:01 | 43.10089 | -79.18603 | 22587 ft | 305 kts | 273° |
| 2026-04-23 03:01 | 43.09947 | -79.21556 | 23689 ft | 308 kts | 273° |
| 2026-04-23 03:02 | 43.09892 | -79.24459 | 24799 ft | 309 kts | 277° |
| 2026-04-23 03:02 | 43.09902 | -79.27428 | 25887 ft | 320 kts | 277° |
| 2026-04-23 03:02 | 43.09886 | -79.30501 | 27058 ft | 324 kts | 277° |
| 2026-04-23 03:02 | 43.09840 | -79.33614 | 28149 ft | 331 kts | 277° |
| 2026-04-23 03:03 | 43.09801 | -79.36785 | 29209 ft | 336 kts | 278° |
| 2026-04-23 03:03 | 43.09770 | -79.40007 | 30210 ft | 342 kts | 278° |
| 2026-04-23 03:03 | 43.09737 | -79.43289 | 31013 ft | 347 kts | 278° |
| 2026-04-23 03:03 | 43.09698 | -79.46628 | 31760 ft | 354 kts | 278° |
| 2026-04-23 03:04 | 43.09655 | -79.50012 | 32538 ft | 358 kts | 278° |
| 2026-04-23 03:04 | 43.09613 | -79.53441 | 33272 ft | 363 kts | 278° |
| 2026-04-23 03:04 | 43.09570 | -79.56898 | 34136 ft | 362 kts | 278° |
| 2026-04-23 03:04 | 43.09523 | -79.60368 | 34969 ft | 359 kts | 278° |
| 2026-04-23 03:05 | 43.09478 | -79.63777 | 35768 ft | 357 kts | 278° |
| 2026-04-23 03:05 | 43.09436 | -79.67160 | 36547 ft | 355 kts | 278° |
| 2026-04-23 03:05 | 43.09390 | -79.70527 | 37326 ft | 353 kts | 278° |
| 2026-04-23 03:05 | 43.09342 | -79.73823 | 38076 ft | 351 kts | 278° |
| 2026-04-23 03:06 | 43.09295 | -79.77149 | 38804 ft | 349 kts | 278° |
| 2026-04-23 03:06 | 43.09249 | -79.80467 | 39302 ft | 349 kts | 277° |
| 2026-04-23 03:06 | 43.09202 | -79.83798 | 39759 ft | 351 kts | 277° |
| 2026-04-23 03:06 | 43.09152 | -79.87157 | 40043 ft | 359 kts | 277° |
| 2026-04-23 03:07 | 43.09105 | -79.90635 | 40046 ft | 373 kts | 276° |
| 2026-04-23 03:07 | 43.09050 | -79.94248 | 40054 ft | 386 kts | 276° |
| 2026-04-23 03:07 | 43.08987 | -79.97968 | 40067 ft | 397 kts | 276° |
| 2026-04-23 03:08 | 43.08857 | -80.05691 | 40064 ft | 413 kts | 275° |
| 2026-04-23 03:08 | 43.08719 | -80.13601 | 40062 ft | 416 kts | 275° |
| 2026-04-23 03:09 | 43.08579 | -80.21477 | 40054 ft | 414 kts | 275° |
| 2026-04-23 03:09 | 43.08432 | -80.29339 | 40061 ft | 413 kts | 275° |
| 2026-04-23 03:10 | 43.08283 | -80.37183 | 40060 ft | 413 kts | 275° |
| 2026-04-23 03:10 | 43.08127 | -80.45029 | 40062 ft | 413 kts | 275° |
| 2026-04-23 03:11 | 43.07966 | -80.52869 | 40066 ft | 413 kts | 275° |
| 2026-04-23 03:11 | 43.07799 | -80.60717 | 40050 ft | 413 kts | 275° |
| 2026-04-23 03:12 | 43.07626 | -80.68575 | 40053 ft | 413 kts | 275° |
| 2026-04-23 03:12 | 43.07449 | -80.76424 | 40054 ft | 413 kts | 275° |
| 2026-04-23 03:13 | 43.07266 | -80.84288 | 40058 ft | 413 kts | 275° |
| 2026-04-23 03:13 | 43.07077 | -80.92142 | 40045 ft | 413 kts | 275° |
| 2026-04-23 03:14 | 43.06885 | -80.99999 | 40056 ft | 414 kts | 275° |
| 2026-04-23 03:14 | 43.06674 | -81.07873 | 40057 ft | 416 kts | 273° |
| 2026-04-23 03:14 | 43.06098 | -81.11794 | 40058 ft | 429 kts | 259° |
| 2026-04-23 03:15 | 43.05126 | -81.15660 | 40061 ft | 430 kts | 258° |
| 2026-04-23 03:15 | 43.03160 | -81.23382 | 40066 ft | 430 kts | 259° |
| 2026-04-23 03:16 | 43.01236 | -81.31110 | 40061 ft | 430 kts | 258° |
| 2026-04-23 03:16 | 42.98302 | -81.42692 | 40065 ft | 430 kts | 258° |
| 2026-04-23 03:17 | 42.96351 | -81.50388 | 40063 ft | 430 kts | 258° |
| 2026-04-23 03:17 | 42.94379 | -81.58133 | 40065 ft | 431 kts | 258° |
| 2026-04-23 03:18 | 42.92411 | -81.65845 | 40039 ft | 431 kts | 258° |
| 2026-04-23 03:18 | 42.90431 | -81.73577 | 40066 ft | 432 kts | 258° |
| 2026-04-23 03:19 | 42.88441 | -81.81318 | 40064 ft | 433 kts | 258° |
| 2026-04-23 03:19 | 42.86447 | -81.89054 | 40065 ft | 433 kts | 258° |
| 2026-04-23 03:20 | 42.84445 | -81.96792 | 40069 ft | 433 kts | 258° |
| 2026-04-23 03:20 | 42.82438 | -82.04527 | 40067 ft | 433 kts | 258° |
| 2026-04-23 03:21 | 42.80425 | -82.12258 | 40071 ft | 433 kts | 258° |
| 2026-04-23 03:21 | 42.78407 | -82.19984 | 40073 ft | 433 kts | 258° |
| 2026-04-23 03:22 | 42.76384 | -82.27706 | 40073 ft | 433 kts | 258° |
| 2026-04-23 03:22 | 42.74353 | -82.35434 | 40057 ft | 434 kts | 258° |
| 2026-04-23 03:23 | 42.72325 | -82.43123 | 40055 ft | 434 kts | 257° |
| 2026-04-23 03:23 | 42.70278 | -82.50857 | 40052 ft | 435 kts | 257° |
| 2026-04-23 03:24 | 42.68211 | -82.58643 | 40049 ft | 435 kts | 257° |
| 2026-04-23 03:24 | 42.66152 | -82.66377 | 40049 ft | 435 kts | 257° |
| 2026-04-23 03:25 | 42.64087 | -82.74106 | 40049 ft | 435 kts | 257° |
| 2026-04-23 03:25 | 42.62016 | -82.81835 | 40048 ft | 435 kts | 257° |
| 2026-04-23 03:26 | 42.61360 | -82.84279 | 40048 ft | 435 kts | 257° |
| 2026-04-23 03:26 | 42.59329 | -82.91820 | 40049 ft | 435 kts | 257° |
| 2026-04-23 03:27 | 42.57250 | -82.99529 | 40047 ft | 435 kts | 257° |
| 2026-04-23 03:27 | 42.55162 | -83.07237 | 40077 ft | 435 kts | 257° |
| 2026-04-23 03:28 | 42.53069 | -83.14941 | 40076 ft | 435 kts | 257° |
| 2026-04-23 03:28 | 42.50973 | -83.22634 | 40078 ft | 434 kts | 256° |
| 2026-04-23 03:29 | 42.48874 | -83.30309 | 40078 ft | 434 kts | 256° |
| 2026-04-23 03:29 | 42.46771 | -83.37981 | 40071 ft | 434 kts | 256° |
| 2026-04-23 03:30 | 42.44664 | -83.45643 | 40060 ft | 434 kts | 256° |
| 2026-04-23 03:30 | 42.42553 | -83.53296 | 40059 ft | 434 kts | 256° |
| 2026-04-23 03:31 | 42.40436 | -83.60935 | 40062 ft | 433 kts | 256° |
| 2026-04-23 03:31 | 42.38238 | -83.68442 | 39746 ft | 423 kts | 255° |
| 2026-04-23 03:32 | 42.37165 | -83.72113 | 39460 ft | 418 kts | 256° |
| 2026-04-23 03:32 | 42.36120 | -83.75763 | 39173 ft | 414 kts | 256° |
| 2026-04-23 03:32 | 42.35074 | -83.79381 | 38890 ft | 413 kts | 256° |
| 2026-04-23 03:32 | 42.34019 | -83.82980 | 38586 ft | 411 kts | 256° |
| 2026-04-23 03:33 | 42.32968 | -83.86568 | 38243 ft | 410 kts | 256° |
| 2026-04-23 03:33 | 42.31924 | -83.90145 | 37908 ft | 409 kts | 256° |
| 2026-04-23 03:33 | 42.30884 | -83.93712 | 37557 ft | 407 kts | 255° |
| 2026-04-23 03:33 | 42.29842 | -83.97262 | 37234 ft | 406 kts | 255° |
| 2026-04-23 03:34 | 42.28800 | -84.00805 | 36912 ft | 405 kts | 255° |
| 2026-04-23 03:34 | 42.27763 | -84.04336 | 36595 ft | 404 kts | 255° |
| 2026-04-23 03:34 | 42.26727 | -84.07863 | 36285 ft | 404 kts | 255° |
| 2026-04-23 03:34 | 42.26041 | -84.10190 | 36087 ft | 403 kts | 255° |
| 2026-04-23 03:35 | 42.25004 | -84.13703 | 35760 ft | 402 kts | 255° |
| 2026-04-23 03:35 | 42.23970 | -84.17205 | 35463 ft | 402 kts | 255° |
| 2026-04-23 03:35 | 42.22935 | -84.20704 | 35166 ft | 401 kts | 255° |
| 2026-04-23 03:35 | 42.21900 | -84.24201 | 34870 ft | 401 kts | 255° |
| 2026-04-23 03:36 | 42.20529 | -84.28821 | 34494 ft | 400 kts | 255° |
| 2026-04-23 03:36 | 42.19833 | -84.31172 | 34281 ft | 400 kts | 254° |
| 2026-04-23 03:36 | 42.18798 | -84.34652 | 33995 ft | 400 kts | 254° |
| 2026-04-23 03:36 | 42.17761 | -84.38124 | 33681 ft | 399 kts | 254° |
| 2026-04-23 03:37 | 42.16727 | -84.41592 | 33363 ft | 399 kts | 254° |
| 2026-04-23 03:37 | 42.15694 | -84.45057 | 33050 ft | 398 kts | 254° |
| 2026-04-23 03:37 | 42.14658 | -84.48521 | 32740 ft | 398 kts | 254° |
| 2026-04-23 03:37 | 42.13624 | -84.51975 | 32436 ft | 398 kts | 253° |
| 2026-04-23 03:38 | 42.12589 | -84.55429 | 32124 ft | 397 kts | 253° |
| 2026-04-23 03:38 | 42.11555 | -84.58875 | 31827 ft | 397 kts | 253° |
| 2026-04-23 03:38 | 42.10519 | -84.62322 | 31529 ft | 397 kts | 253° |
| 2026-04-23 03:38 | 42.09499 | -84.65712 | 31239 ft | 396 kts | 253° |
| 2026-04-23 03:39 | 42.08450 | -84.69193 | 30929 ft | 396 kts | 253° |
| 2026-04-23 03:39 | 42.07429 | -84.72576 | 30635 ft | 395 kts | 252° |
| 2026-04-23 03:39 | 42.06338 | -84.75972 | 30337 ft | 398 kts | 247° |
| 2026-04-23 03:39 | 42.04693 | -84.79019 | 30020 ft | 406 kts | 234° |
| 2026-04-23 03:40 | 42.02838 | -84.81904 | 29686 ft | 412 kts | 233° |
| 2026-04-23 03:40 | 42.00958 | -84.84815 | 29871 ft | 412 kts | 234° |
| 2026-04-23 03:40 | 41.99078 | -84.87778 | 30039 ft | 423 kts | 234° |
| 2026-04-23 03:40 | 41.97145 | -84.90841 | 30047 ft | 436 kts | 234° |
| 2026-04-23 03:41 | 41.93121 | -84.97117 | 30054 ft | 446 kts | 233° |
| 2026-04-23 03:41 | 41.89073 | -85.03449 | 30051 ft | 448 kts | 234° |
| 2026-04-23 03:42 | 41.85004 | -85.09796 | 29808 ft | 454 kts | 233° |
| 2026-04-23 03:42 | 41.82925 | -85.13031 | 29367 ft | 461 kts | 233° |
| 2026-04-23 03:42 | 41.80818 | -85.16307 | 28937 ft | 466 kts | 233° |
| 2026-04-23 03:43 | 41.78695 | -85.19606 | 28516 ft | 468 kts | 233° |
| 2026-04-23 03:43 | 41.76571 | -85.22901 | 28083 ft | 467 kts | 232° |
| 2026-04-23 03:43 | 41.74451 | -85.26185 | 27651 ft | 466 kts | 232° |
| 2026-04-23 03:43 | 41.72333 | -85.29464 | 27206 ft | 466 kts | 232° |
| 2026-04-23 03:44 | 41.70209 | -85.32751 | 26791 ft | 467 kts | 232° |
| 2026-04-23 03:44 | 41.68087 | -85.36029 | 26367 ft | 465 kts | 232° |
| 2026-04-23 03:44 | 41.65969 | -85.39295 | 25953 ft | 464 kts | 232° |
| 2026-04-23 03:44 | 41.63862 | -85.42541 | 25494 ft | 462 kts | 232° |
| 2026-04-23 03:45 | 41.61759 | -85.45782 | 25033 ft | 461 kts | 232° |
| 2026-04-23 03:45 | 41.59659 | -85.49012 | 24591 ft | 459 kts | 231° |
| 2026-04-23 03:45 | 41.57567 | -85.52226 | 24156 ft | 458 kts | 231° |
| 2026-04-23 03:45 | 41.55488 | -85.55410 | 24045 ft | 450 kts | 231° |
| 2026-04-23 03:46 | 41.53625 | -85.58684 | 24032 ft | 437 kts | 242° |
| 2026-04-23 03:46 | 41.52375 | -85.62344 | 23713 ft | 434 kts | 254° |
| 2026-04-23 03:46 | 41.51778 | -85.66292 | 23048 ft | 434 kts | 267° |
| 2026-04-23 03:46 | 41.51767 | -85.70259 | 22395 ft | 434 kts | 274° |
| 2026-04-23 03:47 | 41.51877 | -85.74337 | 21748 ft | 434 kts | 274° |
| 2026-04-23 03:47 | 41.51971 | -85.78311 | 21134 ft | 435 kts | 274° |
| 2026-04-23 03:47 | 41.52042 | -85.82394 | 20511 ft | 434 kts | 274° |
| 2026-04-23 03:47 | 41.52112 | -85.86364 | 19915 ft | 434 kts | 274° |
| 2026-04-23 03:48 | 41.52195 | -85.90379 | 19329 ft | 433 kts | 274° |
| 2026-04-23 03:48 | 41.52276 | -85.94393 | 18749 ft | 432 kts | 274° |
| 2026-04-23 03:48 | 41.52348 | -85.98400 | 18151 ft | 431 kts | 273° |
| 2026-04-23 03:48 | 41.52419 | -86.02388 | 17491 ft | 430 kts | 273° |
| 2026-04-23 03:49 | 41.52492 | -86.06374 | 16840 ft | 429 kts | 273° |
| 2026-04-23 03:49 | 41.52474 | -86.10356 | 16197 ft | 429 kts | 271° |
| 2026-04-23 03:49 | 41.52456 | -86.14295 | 15532 ft | 420 kts | 272° |
| 2026-04-23 03:49 | 41.52469 | -86.18157 | 14877 ft | 413 kts | 272° |
| 2026-04-23 03:50 | 41.52457 | -86.21965 | 14234 ft | 408 kts | 271° |
| 2026-04-23 03:50 | 41.52424 | -86.25743 | 13588 ft | 405 kts | 271° |
| 2026-04-23 03:50 | 41.52400 | -86.29473 | 12885 ft | 391 kts | 271° |
| 2026-04-23 03:50 | 41.52383 | -86.32940 | 12198 ft | 357 kts | 271° |
| 2026-04-23 03:51 | 41.52363 | -86.36119 | 11516 ft | 331 kts | 271° |
| 2026-04-23 03:51 | 41.52344 | -86.39103 | 11011 ft | 312 kts | 271° |
| 2026-04-23 03:51 | 41.52326 | -86.41909 | 10986 ft | 299 kts | 271° |
| 2026-04-23 03:51 | 41.52309 | -86.44697 | 10990 ft | 301 kts | 271° |
| 2026-04-23 03:52 | 41.52290 | -86.47497 | 10986 ft | 303 kts | 271° |
| 2026-04-23 03:52 | 41.52270 | -86.50311 | 10994 ft | 304 kts | 271° |
| 2026-04-23 03:52 | 41.52248 | -86.53136 | 10988 ft | 305 kts | 271° |
| 2026-04-23 03:52 | 41.52228 | -86.55990 | 10753 ft | 313 kts | 271° |
| 2026-04-23 03:53 | 41.52204 | -86.58944 | 10437 ft | 322 kts | 270° |
| 2026-04-23 03:53 | 41.52181 | -86.61965 | 10143 ft | 329 kts | 270° |
| 2026-04-23 03:53 | 41.52154 | -86.65025 | 10010 ft | 328 kts | 270° |
| 2026-04-23 03:53 | 41.52129 | -86.67938 | 9966 ft | 307 kts | 270° |
| 2026-04-23 03:54 | 41.52103 | -86.70706 | 9703 ft | 290 kts | 270° |
| 2026-04-23 03:54 | 41.52080 | -86.73338 | 9434 ft | 278 kts | 270° |
| 2026-04-23 03:54 | 41.52057 | -86.75868 | 9163 ft | 268 kts | 270° |
| 2026-04-23 03:54 | 41.52034 | -86.78327 | 8896 ft | 262 kts | 270° |
| 2026-04-23 03:55 | 41.52011 | -86.80755 | 8632 ft | 261 kts | 270° |
| 2026-04-23 03:55 | 41.51986 | -86.83179 | 8374 ft | 263 kts | 270° |
| 2026-04-23 03:55 | 41.51962 | -86.85646 | 8122 ft | 268 kts | 269° |
| 2026-04-23 03:55 | 41.51936 | -86.88144 | 7875 ft | 271 kts | 270° |
| 2026-04-23 03:56 | 41.51909 | -86.90667 | 7632 ft | 273 kts | 269° |
| 2026-04-23 03:56 | 41.51881 | -86.93207 | 7390 ft | 274 kts | 269° |
| 2026-04-23 03:56 | 41.51853 | -86.95754 | 7154 ft | 275 kts | 269° |
| 2026-04-23 03:56 | 41.51824 | -86.98305 | 6918 ft | 275 kts | 269° |
| 2026-04-23 03:57 | 41.51794 | -87.00852 | 6680 ft | 275 kts | 269° |
| 2026-04-23 03:57 | 41.51764 | -87.03397 | 6451 ft | 273 kts | 269° |
| 2026-04-23 03:57 | 41.51734 | -87.05928 | 6202 ft | 272 kts | 269° |
| 2026-04-23 03:57 | 41.51703 | -87.08442 | 5998 ft | 269 kts | 269° |
| 2026-04-23 03:58 | 41.51672 | -87.10897 | 5997 ft | 260 kts | 269° |
| 2026-04-23 03:58 | 41.51642 | -87.13276 | 5990 ft | 253 kts | 269° |
| 2026-04-23 03:58 | 41.51613 | -87.15601 | 5981 ft | 248 kts | 269° |
| 2026-04-23 03:58 | 41.51728 | -87.17875 | 5980 ft | 244 kts | 274° |
| 2026-04-23 03:59 | 41.51856 | -87.20128 | 5981 ft | 244 kts | 273° |
| 2026-04-23 03:59 | 41.51972 | -87.22405 | 5984 ft | 247 kts | 273° |
| 2026-04-23 03:59 | 41.52098 | -87.24704 | 5986 ft | 250 kts | 274° |
| 2026-04-23 03:59 | 41.52227 | -87.27031 | 5981 ft | 253 kts | 274° |
| 2026-04-23 04:00 | 41.52357 | -87.29382 | 5985 ft | 255 kts | 274° |
| 2026-04-23 04:00 | 41.52487 | -87.31749 | 5987 ft | 257 kts | 274° |
| 2026-04-23 04:00 | 41.52617 | -87.34129 | 5994 ft | 257 kts | 274° |
| 2026-04-23 04:00 | 41.52746 | -87.36514 | 5997 ft | 258 kts | 273° |
| 2026-04-23 04:01 | 41.52876 | -87.38901 | 5999 ft | 259 kts | 274° |
| 2026-04-23 04:01 | 41.53005 | -87.41299 | 6002 ft | 259 kts | 274° |
| 2026-04-23 04:01 | 41.53134 | -87.43702 | 5936 ft | 262 kts | 274° |
| 2026-04-23 04:01 | 41.53265 | -87.46147 | 5816 ft | 266 kts | 273° |
| 2026-04-23 04:02 | 41.53397 | -87.48620 | 5696 ft | 268 kts | 273° |
| 2026-04-23 04:02 | 41.53530 | -87.51115 | 5577 ft | 270 kts | 273° |
| 2026-04-23 04:02 | 41.53661 | -87.53620 | 5456 ft | 271 kts | 273° |
| 2026-04-23 04:02 | 41.53794 | -87.56134 | 5285 ft | 274 kts | 273° |
| 2026-04-23 04:03 | 41.53929 | -87.58684 | 4938 ft | 276 kts | 272° |
| 2026-04-23 04:03 | 41.54063 | -87.61248 | 4591 ft | 277 kts | 272° |
| 2026-04-23 04:03 | 41.54196 | -87.63783 | 4243 ft | 271 kts | 272° |
| 2026-04-23 04:03 | 41.54474 | -87.66229 | 3998 ft | 262 kts | 289° |
| 2026-04-23 04:04 | 41.55340 | -87.68275 | 3983 ft | 244 kts | 299° |
| 2026-04-23 04:04 | 41.56170 | -87.70171 | 3984 ft | 230 kts | 297° |
| 2026-04-23 04:04 | 41.56915 | -87.71997 | 3986 ft | 219 kts | 296° |
| 2026-04-23 04:04 | 41.57629 | -87.73739 | 3985 ft | 210 kts | 296° |
| 2026-04-23 04:05 | 41.58326 | -87.75420 | 3983 ft | 204 kts | 296° |
| 2026-04-23 04:05 | 41.58994 | -87.77031 | 3982 ft | 198 kts | 296° |
| 2026-04-23 04:05 | 41.59656 | -87.78628 | 3975 ft | 195 kts | 296° |
| 2026-04-23 04:05 | 41.60310 | -87.80212 | 3973 ft | 194 kts | 296° |
| 2026-04-23 04:06 | 41.60962 | -87.81789 | 3977 ft | 194 kts | 296° |
| 2026-04-23 04:06 | 41.61617 | -87.83373 | 3977 ft | 196 kts | 296° |
| 2026-04-23 04:06 | 41.62279 | -87.84977 | 3971 ft | 198 kts | 296° |
| 2026-04-23 04:06 | 41.62946 | -87.86594 | 3992 ft | 200 kts | 296° |
| 2026-04-23 04:07 | 41.63632 | -87.88223 | 3997 ft | 202 kts | 298° |
| 2026-04-23 04:07 | 41.64697 | -87.89468 | 3986 ft | 210 kts | 332° |
| 2026-04-23 04:07 | 41.66145 | -87.89794 | 3981 ft | 217 kts | 5° |
| 2026-04-23 04:07 | 41.67520 | -87.89006 | 3987 ft | 215 kts | 36° |
| 2026-04-23 04:08 | 41.68634 | -87.87698 | 3642 ft | 216 kts | 44° |
| 2026-04-23 04:08 | 41.69678 | -87.86315 | 3055 ft | 206 kts | 45° |
| 2026-04-23 04:08 | 41.70671 | -87.84998 | 2576 ft | 194 kts | 45° |
| 2026-04-23 04:08 | 41.71585 | -87.83859 | 2454 ft | 169 kts | 44° |
| 2026-04-23 04:09 | 41.72390 | -87.82870 | 2217 ft | 145 kts | 45° |
| 2026-04-23 04:09 | 41.73130 | -87.81960 | 1948 ft | 144 kts | 45° |
| 2026-04-23 04:09 | 41.73869 | -87.81067 | 1824 ft | 141 kts | 46° |
| 2026-04-23 04:09 | 41.74564 | -87.80157 | 1704 ft | 140 kts | 49° |
| 2026-04-23 04:10 | 41.75279 | -87.79267 | 1523 ft | 141 kts | 43° |
| 2026-04-23 04:10 | 41.75989 | -87.78423 | 1321 ft | 128 kts | 47° |
| 2026-04-23 04:10 | 41.76619 | -87.77596 | 1079 ft | 126 kts | 47° |
| 2026-04-23 04:10 | 41.77242 | -87.76799 | 886 ft | 122 kts | 46° |
| 2026-04-23 04:11 | 41.77852 | -87.76023 | 700 ft | 119 kts | 46° |
| 2026-04-23 04:11 | 41.78421 | -87.75289 | 630 ft | 100 kts | 44° |
| 2026-04-23 04:11 | 41.78721 | -87.74914 | 623 ft | 17 kts | 43° |
| 2026-04-23 04:11 | 41.78815 | -87.74804 | 626 ft | 17 kts | 24° |
| 2026-04-23 04:12 | 41.78928 | -87.74795 | 623 ft | 10 kts | 358° |
| 2026-04-23 04:12 | 41.78995 | -87.74798 | 627 ft | 13 kts | 356° |
| 2026-04-23 04:12 | 41.79083 | -87.74883 | 623 ft | 19 kts | 310° |
| 2026-04-23 04:12 | 41.79138 | -87.74974 | 623 ft | 12 kts | 287° |
| 2026-04-23 04:13 | 41.79138 | -87.75024 | 623 ft | 0 kts | 266° |